sensor_id;sensor_type;location;lat;lon;timestamp;P1;P2;P0
68341;PMS7003;55668;52.310;21.066;2023-04-03T00:03:31;14;14;
68341;PMS7003;55668;52.310;21.066;2023-04-03T00:16:42;15;15;
68341;PMS7003;55668;52.310;21.066;2023-04-03T00:32:35;14;14;
68341;PMS7003;55668;52.310;21.066;2023-04-03T00:48:00;14;14;
68341;PMS7003;55668;52.310;21.066;2023-04-03T01:03:17;12;12;
68341;PMS7003;55668;52.310;21.066;2023-04-03T01:18:26;12;12;
68341;PMS7003;55668;52.310;21.066;2023-04-03T01:34:49;10;10;
68341;PMS7003;55668;52.310;21.066;2023-04-03T01:49:04;12;12;
68341;PMS7003;55668;52.310;21.066;2023-04-03T02:04:14;11;11;
68341;PMS7003;55668;52.310;21.066;2023-04-03T02:19:33;9;9;
68341;PMS7003;55668;52.310;21.066;2023-04-03T02:35:38;8;8;
68341;PMS7003;55668;52.310;21.066;2023-04-03T02:55:25;9;9;
68341;PMS7003;55668;52.310;21.066;2023-04-03T03:05:42;8;8;
68341;PMS7003;55668;52.310;21.066;2023-04-03T03:21:33;8;8;
68341;PMS7003;55668;52.310;21.066;2023-04-03T03:37:47;8;8;
68341;PMS7003;55668;52.310;21.066;2023-04-03T03:52:10;7;7;
68341;PMS7003;55668;52.310;21.066;2023-04-03T04:23:26;4;4;
68341;PMS7003;55668;52.310;21.066;2023-04-03T04:53:13;4;4;
68341;PMS7003;55668;52.310;21.066;2023-04-03T05:08:41;4;4;
68341;PMS7003;55668;52.310;21.066;2023-04-03T05:39:31;4;4;
68341;PMS7003;55668;52.310;21.066;2023-04-03T05:54:44;6;6;
68341;PMS7003;55668;52.310;21.066;2023-04-03T06:09:56;3;3;
68341;PMS7003;55668;52.310;21.066;2023-04-03T06:25:08;3;3;
68341;PMS7003;55668;52.310;21.066;2023-04-03T06:44:18;5;5;
68341;PMS7003;55668;52.310;21.066;2023-04-03T06:59:53;4;4;
68341;PMS7003;55668;52.310;21.066;2023-04-03T07:11:39;4;4;
68341;PMS7003;55668;52.310;21.066;2023-04-03T07:26:59;5;5;
68341;PMS7003;55668;52.310;21.066;2023-04-03T07:43:10;4;4;
68341;PMS7003;55668;52.310;21.066;2023-04-03T08:29:29;3;3;
68341;PMS7003;55668;52.310;21.066;2023-04-03T08:46:26;6;5;
68341;PMS7003;55668;52.310;21.066;2023-04-03T09:17:41;3;3;
68341;PMS7003;55668;52.310;21.066;2023-04-03T09:29:49;4;4;
68341;PMS7003;55668;52.310;21.066;2023-04-03T09:47:25;5;5;
68341;PMS7003;55668;52.310;21.066;2023-04-03T10:05:41;6;6;
68341;PMS7003;55668;52.310;21.066;2023-04-03T10:15:36;5;5;
68341;PMS7003;55668;52.310;21.066;2023-04-03T10:31:05;4;3;
68341;PMS7003;55668;52.310;21.066;2023-04-03T11:03:00;4;4;
68341;PMS7003;55668;52.310;21.066;2023-04-03T11:17:21;2;2;
68341;PMS7003;55668;52.310;21.066;2023-04-03T11:32:43;2;2;
68341;PMS7003;55668;52.310;21.066;2023-04-03T11:47:49;2;2;
68341;PMS7003;55668;52.310;21.066;2023-04-03T12:34:01;2;2;
68341;PMS7003;55668;52.310;21.066;2023-04-03T12:50:32;1;1;
68341;PMS7003;55668;52.310;21.066;2023-04-03T13:04:23;2;2;
68341;PMS7003;55668;52.310;21.066;2023-04-03T13:35:26;2;2;
68341;PMS7003;55668;52.310;21.066;2023-04-03T13:51:38;2;2;
68341;PMS7003;55668;52.310;21.066;2023-04-03T14:06:35;3;3;
68341;PMS7003;55668;52.310;21.066;2023-04-03T14:22:32;4;4;
68341;PMS7003;55668;52.310;21.066;2023-04-03T14:36:44;2;2;
68341;PMS7003;55668;52.310;21.066;2023-04-03T15:07:27;3;3;
68341;PMS7003;55668;52.310;21.066;2023-04-03T15:42:25;2;2;
68341;PMS7003;55668;52.310;21.066;2023-04-03T15:57:41;2;2;
68341;PMS7003;55668;52.310;21.066;2023-04-03T16:11:09;5;5;
68341;PMS7003;55668;52.310;21.066;2023-04-03T16:24:33;4;4;
68341;PMS7003;55668;52.310;21.066;2023-04-03T16:40:39;3;3;
68341;PMS7003;55668;52.310;21.066;2023-04-03T16:54:43;3;3;
68341;PMS7003;55668;52.310;21.066;2023-04-03T17:10:21;4;4;
68341;PMS7003;55668;52.310;21.066;2023-04-03T17:26:11;4;4;
68341;PMS7003;55668;52.310;21.066;2023-04-03T17:57:14;5;5;
68341;PMS7003;55668;52.310;21.066;2023-04-03T18:12:06;6;6;
68341;PMS7003;55668;52.310;21.066;2023-04-03T18:42:39;4;4;
68341;PMS7003;55668;52.310;21.066;2023-04-03T19:13:04;4;4;
68341;PMS7003;55668;52.310;21.066;2023-04-03T19:29:11;5;5;
68341;PMS7003;55668;52.310;21.066;2023-04-03T19:45:49;6;6;
68341;PMS7003;55668;52.310;21.066;2023-04-03T20:15:06;5;5;
68341;PMS7003;55668;52.310;21.066;2023-04-03T20:29:43;6;6;
68341;PMS7003;55668;52.310;21.066;2023-04-03T20:45:59;5;5;
68341;PMS7003;55668;52.310;21.066;2023-04-03T21:02:56;7;7;
68341;PMS7003;55668;52.310;21.066;2023-04-03T21:31:10;6;6;
68341;PMS7003;55668;52.310;21.066;2023-04-03T21:48:11;5;5;
68341;PMS7003;55668;52.310;21.066;2023-04-03T22:03:03;8;8;
68341;PMS7003;55668;52.310;21.066;2023-04-03T22:18:00;5;5;
68341;PMS7003;55668;52.310;21.066;2023-04-03T22:34:33;5;5;
68341;PMS7003;55668;52.310;21.066;2023-04-03T22:48:17;4;4;
68341;PMS7003;55668;52.310;21.066;2023-04-03T23:04:12;6;6;
68341;PMS7003;55668;52.310;21.066;2023-04-03T23:19:54;5;5;
68341;PMS7003;55668;52.310;21.066;2023-04-03T23:34:36;4;4;
68341;PMS7003;55668;52.310;21.066;2023-04-03T23:49:12;5;5;
